createdAt,value
2019-02-20T05:58:37.230Z,264.00
2019-02-20T06:00:37.184Z,268.00
2019-02-20T06:02:37.157Z,272.00
2019-02-20T06:04:37.157Z,268.00
2019-02-20T06:05:37.118Z,268.00
2019-02-20T06:08:37.087Z,268.00
2019-02-20T06:10:37.074Z,268.00
2019-02-20T06:12:37.047Z,268.00
2019-02-20T06:13:37.036Z,268.00
2019-02-20T06:14:37.021Z,272.00
2019-02-20T06:17:36.990Z,272.00
2019-02-20T06:18:36.990Z,272.00
2019-02-20T06:20:36.965Z,272.00
2019-02-20T06:22:36.937Z,272.00
2019-02-20T06:23:36.927Z,276.00
2019-02-20T06:25:58.491Z,276.00
2019-02-20T06:26:58.525Z,280.00
2019-02-20T06:29:58.425Z,288.00
2019-02-20T06:30:58.429Z,288.00
2019-02-20T06:31:58.449Z,288.00
2019-02-20T06:32:58.389Z,292.00
2019-02-20T06:33:58.393Z,296.00
2019-02-20T06:34:58.438Z,296.00
2019-02-20T06:35:58.358Z,300.00
2019-02-20T06:36:58.372Z,300.00
2019-02-20T06:37:58.342Z,304.00
2019-02-20T06:38:58.326Z,308.00
2019-02-20T06:39:58.316Z,308.00
2019-02-20T06:40:58.314Z,312.00
2019-02-20T06:41:58.316Z,320.00
2019-02-20T06:42:58.282Z,324.00
2019-02-20T06:43:58.396Z,328.00
2019-02-20T06:44:58.250Z,332.00
2019-02-20T06:45:58.245Z,332.00
2019-02-20T06:46:58.239Z,336.00
2019-02-20T06:47:58.221Z,344.00
2019-02-20T06:48:58.237Z,352.00
2019-02-20T06:49:58.407Z,356.00
2019-02-20T06:50:58.186Z,360.00
2019-02-20T06:51:58.182Z,364.00
2019-02-20T06:52:58.298Z,372.00
2019-02-20T06:53:58.365Z,380.00
2019-02-20T06:54:58.202Z,384.00
2019-02-20T06:55:58.129Z,396.00
2019-02-20T06:56:58.119Z,404.00
2019-02-20T06:57:58.127Z,408.00
2019-02-20T06:58:58.098Z,420.00
2019-02-20T06:59:58.188Z,428.00
2019-02-20T07:00:58.068Z,436.00
2019-02-20T07:01:58.067Z,444.00
2019-02-20T07:02:58.146Z,452.00
2019-02-20T07:03:58.252Z,460.00
2019-02-20T07:04:58.021Z,472.00
2019-02-20T07:05:58.039Z,476.00
2019-02-20T07:06:58.003Z,488.00
2019-02-20T07:07:57.991Z,496.00
2019-02-20T07:08:57.994Z,504.00
2019-02-20T07:09:57.964Z,512.00
2019-02-20T07:10:57.962Z,520.00
2019-02-20T07:11:57.999Z,528.00
2019-02-20T07:12:57.961Z,540.00
2019-02-20T07:13:57.923Z,544.00
2019-02-20T07:14:57.917Z,552.00
2019-02-20T07:15:57.909Z,564.00
2019-02-20T07:16:57.926Z,568.00
2019-02-20T07:17:57.995Z,580.00
2019-02-20T07:18:57.893Z,588.00
2019-02-20T07:19:57.866Z,600.00
2019-02-20T07:20:57.856Z,608.00
2019-02-20T07:21:57.841Z,620.00
2019-02-20T07:22:57.852Z,632.00
2019-02-20T07:23:57.814Z,640.00
2019-02-20T07:25:03.106Z,656.00
2019-02-20T07:26:19.318Z,672.00
2019-02-20T07:27:19.333Z,684.00
2019-02-20T07:28:19.350Z,700.00
2019-02-20T07:29:19.297Z,716.00
2019-02-20T07:30:19.325Z,732.00
2019-02-20T07:31:19.285Z,748.00
2019-02-20T07:32:19.440Z,760.00
2019-02-20T07:33:19.255Z,768.00
2019-02-20T07:34:19.248Z,780.00
2019-02-20T07:35:19.226Z,788.00
2019-02-20T07:36:19.224Z,800.00
2019-02-20T07:37:19.209Z,796.00
2019-02-20T07:38:19.180Z,820.00
2019-02-20T07:39:19.170Z,828.00
2019-02-20T07:40:19.190Z,832.00
2019-02-20T07:41:19.147Z,844.00
2019-02-20T07:42:19.260Z,848.00
2019-02-20T07:43:19.126Z,852.00
2019-02-20T07:44:19.121Z,840.00
2019-02-20T07:45:19.097Z,840.00
2019-02-20T07:46:19.098Z,840.00
2019-02-20T07:47:19.084Z,840.00
2019-02-20T07:48:19.082Z,840.00
2019-02-20T07:49:19.063Z,840.00
2019-02-20T07:50:19.055Z,844.00
2019-02-20T07:51:19.056Z,852.00
2019-02-20T07:52:19.029Z,860.00
2019-02-20T07:53:19.009Z,872.00
2019-02-20T07:54:19.015Z,884.00
2019-02-20T07:55:19.015Z,884.00
2019-02-20T07:56:18.991Z,892.00
2019-02-20T07:57:19.017Z,892.00
2019-02-20T07:58:18.974Z,892.00
2019-02-20T07:59:18.955Z,892.00
2019-02-20T08:00:18.949Z,888.00
2019-02-20T08:01:18.942Z,888.00
2019-02-20T08:18:19.679Z,1012.00
2019-02-20T08:19:18.605Z,1044.00
2019-02-20T08:20:18.584Z,1068.00
2019-02-20T08:21:18.573Z,1084.00
2019-02-20T08:22:18.568Z,1088.00
2019-02-20T08:23:18.547Z,1100.00
2019-02-20T08:24:18.546Z,1108.00
2019-02-20T08:25:22.914Z,1108.00
2019-02-20T08:26:18.516Z,1120.00
2019-02-20T08:27:18.551Z,1132.00
2019-02-20T08:28:18.494Z,1144.00
2019-02-20T08:29:18.480Z,1148.00
2019-02-20T08:30:18.465Z,1140.00
2019-02-20T08:31:18.462Z,1132.00
2019-02-20T08:32:18.470Z,1112.00
2019-02-20T08:33:18.451Z,1092.00
2019-02-20T08:34:18.422Z,1076.00
2019-02-20T08:35:18.419Z,1072.00
2019-02-20T08:36:18.419Z,1056.00
2019-02-20T08:37:19.879Z,1040.00
2019-02-20T08:38:18.425Z,1020.00
2019-02-20T08:39:18.379Z,1008.00
2019-02-20T08:40:18.384Z,1004.00
2019-02-20T08:41:18.336Z,1000.00
2019-02-20T08:42:18.334Z,1004.00
2019-02-20T08:43:18.537Z,1000.00
2019-02-20T08:44:18.317Z,996.00
2019-02-20T08:45:18.352Z,996.00
2019-02-20T08:46:18.296Z,980.00
2019-02-20T08:47:18.287Z,984.00
2019-02-20T08:48:18.284Z,1000.00
2019-02-20T08:49:18.248Z,1036.00
2019-02-20T08:50:18.277Z,1052.00
2019-02-20T08:51:18.238Z,1072.00
2019-02-20T08:52:18.232Z,1092.00
2019-02-20T08:53:18.207Z,1100.00
2019-02-20T08:54:18.190Z,1116.00
2019-02-20T08:55:18.926Z,1156.00
2019-02-20T08:56:18.184Z,1164.00
2019-02-20T08:57:18.167Z,1196.00
2019-02-20T08:58:18.162Z,1228.00
2019-02-20T08:59:18.139Z,1248.00
2019-02-20T09:00:18.144Z,1280.00
2019-02-20T09:01:18.233Z,1304.00
2019-02-20T09:02:40.323Z,1340.00
2019-02-20T09:04:03.906Z,1368.00
2019-02-20T09:05:02.334Z,1376.00
2019-02-20T09:06:02.555Z,1388.00
2019-02-20T09:07:02.307Z,1388.00
2019-02-20T09:08:02.327Z,1384.00
2019-02-20T09:09:02.300Z,1384.00
2019-02-20T09:10:02.274Z,1384.00
2019-02-20T09:11:02.262Z,1388.00
2019-02-20T09:12:02.875Z,1372.00
2019-02-20T09:13:02.769Z,1344.00
2019-02-20T09:14:02.251Z,1312.00
2019-02-20T09:15:02.221Z,1300.00
2019-02-20T09:16:02.219Z,1272.00
2019-02-20T09:17:25.386Z,1280.00
2019-02-20T09:18:25.368Z,1260.00
2019-02-20T09:19:25.398Z,1260.00
2019-02-20T09:20:25.334Z,1268.00
2019-02-20T09:21:25.461Z,1268.00
2019-02-20T09:22:25.317Z,1268.00
2019-02-20T09:23:25.308Z,1260.00
2019-02-20T09:24:25.325Z,1268.00
2019-02-20T09:25:25.272Z,1280.00
2019-02-20T09:26:25.282Z,1304.00
2019-02-20T09:27:25.251Z,1308.00
2019-02-20T09:28:25.249Z,1328.00
2019-02-20T09:29:25.224Z,1352.00
2019-02-20T09:30:28.571Z,1364.00
2019-02-20T09:31:25.206Z,1364.00
2019-02-20T09:32:25.186Z,1368.00
2019-02-20T09:33:25.187Z,1372.00
2019-02-20T09:34:25.223Z,1400.00
2019-02-20T09:35:25.232Z,1376.00
2019-02-20T09:36:25.159Z,1388.00
2019-02-20T09:37:25.182Z,1376.00
2019-02-20T09:38:25.142Z,1352.00
2019-02-20T09:39:25.160Z,1368.00
2019-02-20T09:40:25.114Z,1416.00
2019-02-20T09:41:25.102Z,1376.00
2019-02-20T09:42:25.193Z,1372.00
2019-02-20T09:43:25.078Z,1376.00
2019-02-20T09:44:25.087Z,1388.00
2019-02-20T09:45:25.044Z,1412.00
2019-02-20T09:46:25.053Z,1416.00
2019-02-20T09:47:25.040Z,1444.00
2019-02-20T09:48:25.018Z,1468.00
2019-02-20T09:49:25.038Z,1460.00
2019-02-20T09:50:25.004Z,1472.00
2019-02-20T09:51:25.029Z,1468.00
2019-02-20T09:52:25.353Z,1456.00
2019-02-20T09:53:25.016Z,1468.00
2019-02-20T09:54:24.995Z,1512.00
2019-02-20T09:55:24.950Z,1504.00
2019-02-20T09:56:24.977Z,1492.00
2019-02-20T09:57:24.921Z,1488.00
2019-02-20T09:58:24.930Z,1448.00
2019-02-20T09:59:24.895Z,1472.00
2019-02-20T10:00:24.996Z,1464.00
2019-02-20T10:01:24.901Z,1448.00
2019-02-20T10:02:25.874Z,1424.00
2019-02-20T10:03:24.849Z,1416.00
2019-02-20T10:04:24.848Z,1416.00
2019-02-20T10:05:24.826Z,1408.00
2019-02-20T10:06:26.208Z,1380.00
2019-02-20T10:07:24.806Z,1364.00
2019-02-20T10:08:24.830Z,1384.00
2019-02-20T10:09:24.784Z,1352.00
2019-02-20T10:10:24.800Z,1312.00
2019-02-20T10:11:24.759Z,1296.00
2019-02-20T10:12:24.776Z,1276.00
2019-02-20T10:13:24.746Z,1268.00
2019-02-20T10:14:24.733Z,1244.00
2019-02-20T10:15:24.749Z,1212.00
2019-02-20T10:16:24.749Z,1196.00
2019-02-20T10:17:24.700Z,1172.00
2019-02-20T10:18:24.736Z,1148.00
2019-02-20T10:19:24.691Z,1156.00
2019-02-20T10:20:24.890Z,1168.00
2019-02-20T10:21:24.659Z,1172.00
2019-02-20T10:22:24.649Z,1196.00
2019-02-20T10:23:24.630Z,1196.00
2019-02-20T10:24:24.626Z,1240.00
2019-02-20T10:25:24.607Z,1216.00
2019-02-20T10:26:24.804Z,1204.00
2019-02-20T10:27:25.583Z,1200.00
2019-02-20T10:28:26.225Z,1208.00
2019-02-20T10:29:24.570Z,1216.00
2019-02-20T10:30:24.562Z,1204.00
2019-02-20T10:31:24.560Z,1212.00
2019-02-20T10:32:24.528Z,1292.00
2019-02-20T10:33:24.528Z,1252.00
2019-02-20T10:34:24.509Z,1316.00
2019-02-20T10:35:24.515Z,1368.00
2019-02-20T10:36:24.487Z,1396.00
2019-02-20T10:37:24.540Z,1412.00
2019-02-20T10:38:24.468Z,1404.00
2019-02-20T10:39:24.469Z,1400.00
2019-02-20T10:40:24.436Z,1364.00
2019-02-20T10:41:24.440Z,1380.00
2019-02-20T10:42:24.492Z,1428.00
2019-02-20T10:43:24.409Z,1412.00
2019-02-20T10:44:24.412Z,1460.00
2019-02-20T10:45:24.425Z,1528.00
2019-02-20T10:46:24.384Z,1556.00
2019-02-20T10:47:24.372Z,1560.00
2019-02-20T10:48:24.355Z,1560.00
2019-02-20T10:49:24.424Z,1564.00
2019-02-20T10:50:24.330Z,1584.00
2019-02-20T10:51:24.321Z,1588.00
2019-02-20T10:52:24.328Z,1568.00
2019-02-20T10:53:24.320Z,1560.00
2019-02-20T10:54:24.352Z,1544.00
2019-02-20T10:55:24.346Z,1508.00
2019-02-20T10:56:24.284Z,1484.00
2019-02-20T10:57:24.365Z,1452.00
2019-02-20T10:58:24.289Z,1444.00
2019-02-20T10:59:24.235Z,1460.00
2019-02-20T11:00:24.644Z,1472.00
2019-02-20T11:01:24.241Z,1492.00
2019-02-20T11:02:24.221Z,1520.00
2019-02-20T11:03:24.193Z,1540.00
2019-02-20T11:04:24.194Z,1524.00
2019-02-20T11:05:26.976Z,1524.00
2019-02-20T11:06:24.175Z,1516.00
2019-02-20T11:07:24.170Z,1532.00
2019-02-20T11:08:24.173Z,1532.00
2019-02-20T11:09:24.132Z,1500.00
2019-02-20T11:10:24.288Z,1484.00
2019-02-20T11:11:24.112Z,1492.00
2019-02-20T11:12:24.128Z,1500.00
2019-02-20T11:13:24.084Z,1516.00
2019-02-20T11:14:24.087Z,1540.00
2019-02-20T11:15:24.116Z,1608.00
2019-02-20T11:16:24.059Z,1620.00
2019-02-20T11:17:24.347Z,1592.00
2019-02-20T11:18:24.077Z,1556.00
2019-02-20T11:19:24.041Z,1600.00
2019-02-20T11:20:24.031Z,1668.00
2019-02-20T11:21:24.002Z,1716.00
2019-02-20T11:22:23.989Z,1688.00
2019-02-20T11:23:23.982Z,1640.00
2019-02-20T11:24:23.982Z,1628.00
2019-02-20T11:25:23.975Z,1648.00
2019-02-20T11:26:23.947Z,1672.00
2019-02-20T11:27:24.000Z,1656.00
2019-02-20T11:28:26.991Z,1632.00
2019-02-20T11:29:23.926Z,1648.00
2019-02-20T11:30:23.939Z,1736.00
2019-02-20T11:31:23.910Z,1776.00
2019-02-20T11:32:23.882Z,1668.00
2019-02-20T11:33:23.876Z,1672.00
2019-02-20T11:34:23.865Z,1756.00
2019-02-20T11:35:23.851Z,1748.00
2019-02-20T11:36:23.891Z,1768.00
2019-02-20T11:37:23.833Z,1728.00
2019-02-20T11:38:23.818Z,1728.00
2019-02-20T11:39:23.818Z,1684.00
2019-02-20T11:40:24.545Z,1668.00
2019-02-20T11:41:23.909Z,1676.00
2019-02-20T11:42:23.772Z,1712.00
2019-02-20T11:43:23.784Z,1832.00
2019-02-20T11:44:23.770Z,2100.00
2019-02-20T11:45:23.749Z,2192.00
2019-02-20T11:46:23.762Z,2292.00
2019-02-20T11:47:24.024Z,2256.00
2019-02-20T11:48:23.754Z,2060.00
2019-02-20T11:49:23.700Z,1952.00
2019-02-20T11:50:23.704Z,1844.00
2019-02-20T11:51:23.714Z,1832.00
2019-02-20T11:52:23.688Z,1760.00
2019-02-20T11:53:23.655Z,1660.00
2019-02-20T11:54:23.676Z,1652.00
2019-02-20T11:55:23.641Z,1652.00
2019-02-20T11:56:26.696Z,1596.00
2019-02-20T11:57:23.649Z,1504.00
2019-02-20T11:58:23.606Z,1484.00
2019-02-20T11:59:23.619Z,1448.00
2019-02-20T12:00:23.716Z,1400.00
2019-02-20T12:01:23.567Z,1412.00
2019-02-20T12:02:25.378Z,1372.00
2019-02-20T12:03:23.557Z,1380.00
2019-02-20T12:04:23.552Z,1400.00
2019-02-20T12:05:23.539Z,1412.00
2019-02-20T12:06:23.556Z,1396.00
2019-02-20T12:07:23.516Z,1404.00
2019-02-20T12:08:23.493Z,1444.00
2019-02-20T12:09:23.492Z,1568.00
2019-02-20T12:10:23.480Z,1700.00
2019-02-20T12:11:23.482Z,1748.00
2019-02-20T12:12:23.448Z,1592.00
2019-02-20T12:13:23.458Z,1544.00
2019-02-20T12:14:24.564Z,1516.00
2019-02-20T12:15:23.450Z,1512.00
2019-02-20T12:16:23.424Z,1480.00
2019-02-20T12:17:23.408Z,1496.00
2019-02-20T12:18:23.409Z,1472.00
2019-02-20T12:19:23.680Z,1484.00
2019-02-20T12:20:23.415Z,1488.00
2019-02-20T12:21:23.364Z,1480.00
2019-02-20T12:22:23.355Z,1488.00
2019-02-20T12:23:23.365Z,1532.00
2019-02-20T12:24:23.329Z,1540.00
2019-02-20T12:25:23.336Z,1600.00
2019-02-20T12:26:24.100Z,1604.00
2019-02-20T12:27:23.301Z,1568.00
2019-02-20T12:28:23.278Z,1528.00
2019-02-20T12:29:23.316Z,1556.00
2019-02-20T12:30:23.275Z,1548.00
2019-02-20T12:31:23.253Z,1540.00
2019-02-20T12:32:23.264Z,1524.00
2019-02-20T12:33:23.238Z,1572.00
2019-02-20T12:34:23.225Z,1520.00
2019-02-20T12:35:23.219Z,1540.00
2019-02-20T12:36:23.224Z,1536.00
2019-02-20T12:37:25.022Z,1564.00
2019-02-20T12:38:23.195Z,1616.00
2019-02-20T12:39:23.195Z,1688.00
2019-02-20T12:40:23.156Z,1748.00
2019-02-20T12:41:23.145Z,1808.00
2019-02-20T12:42:23.134Z,1748.00
2019-02-20T12:43:23.170Z,1760.00
2019-02-20T12:44:23.150Z,1812.00
2019-02-20T12:45:23.125Z,1824.00
2019-02-20T12:46:23.094Z,1780.00
2019-02-20T12:47:23.099Z,1740.00
2019-02-20T12:48:23.086Z,1716.00
2019-02-20T12:49:23.074Z,1764.00
2019-02-20T12:50:24.736Z,1784.00
2019-02-20T12:51:23.056Z,1760.00
2019-02-20T12:52:23.035Z,1784.00
2019-02-20T12:53:25.106Z,1800.00
2019-02-20T12:54:23.000Z,1784.00
2019-02-20T12:55:23.204Z,1844.00
2019-02-20T12:56:23.033Z,1796.00
2019-02-20T12:57:22.996Z,1768.00
2019-02-20T12:58:22.987Z,1792.00
2019-02-20T12:59:22.955Z,1732.00
2019-02-20T13:00:22.944Z,1768.00
2019-02-20T13:01:22.932Z,1752.00
2019-02-20T13:02:22.933Z,1768.00
2019-02-20T13:03:23.105Z,1744.00
2019-02-20T13:04:24.591Z,1764.00
2019-02-20T13:05:22.898Z,1692.00
2019-02-20T13:06:22.891Z,1700.00
2019-02-20T13:07:22.970Z,1688.00
2019-02-20T13:08:22.851Z,1656.00
2019-02-20T13:09:22.963Z,1624.00
2019-02-20T13:10:22.834Z,1588.00
2019-02-20T13:11:22.842Z,1560.00
2019-02-20T13:12:22.808Z,1540.00
2019-02-20T13:13:22.806Z,1548.00
2019-02-20T13:14:22.786Z,1556.00
2019-02-20T13:15:22.990Z,1588.00
2019-02-20T13:16:22.769Z,1564.00
2019-02-20T13:17:22.765Z,1576.00
2019-02-20T13:18:22.755Z,1600.00
2019-02-20T13:19:22.741Z,1600.00
2019-02-20T13:20:22.734Z,1584.00
2019-02-20T13:21:22.712Z,1580.00
2019-02-20T13:22:22.710Z,1572.00
2019-02-20T13:23:22.689Z,1576.00
2019-02-20T13:24:22.686Z,1576.00
2019-02-20T13:25:22.669Z,1576.00
2019-02-20T13:26:22.685Z,1548.00
2019-02-20T13:27:23.230Z,1520.00
2019-02-20T13:28:22.643Z,1536.00
2019-02-20T13:29:22.627Z,1544.00
2019-02-20T13:30:22.612Z,1536.00
2019-02-20T13:31:22.599Z,1516.00
2019-02-20T13:32:22.598Z,1500.00
2019-02-20T13:33:22.580Z,1484.00
2019-02-20T13:34:22.777Z,1468.00
2019-02-20T13:35:22.562Z,1456.00
2019-02-20T13:36:22.554Z,1444.00
2019-02-20T13:37:22.550Z,1436.00
2019-02-20T13:38:22.528Z,1448.00
2019-02-20T13:39:22.517Z,1452.00
2019-02-20T13:40:22.520Z,1452.00
2019-02-20T13:41:22.492Z,1436.00
2019-02-20T13:42:22.513Z,1424.00
2019-02-20T13:43:22.475Z,1420.00
2019-02-20T13:44:22.464Z,1428.00
2019-02-20T13:45:22.458Z,1444.00
2019-02-20T13:46:22.445Z,1432.00
2019-02-20T14:01:29.539Z,1356.00
2019-02-20T14:02:29.538Z,1344.00
2019-02-20T14:03:29.513Z,1344.00
2019-02-20T14:04:29.510Z,1332.00
2019-02-20T14:05:29.499Z,1320.00
2019-02-20T14:06:29.478Z,1328.00
2019-02-20T14:07:29.461Z,1328.00
2019-02-20T14:08:29.464Z,1332.00
2019-02-20T14:09:29.550Z,1340.00
2019-02-20T14:10:29.443Z,1332.00
2019-02-20T14:11:29.419Z,1324.00
2019-02-20T14:12:29.420Z,1312.00
2019-02-20T14:13:29.398Z,1308.00
2019-02-20T14:14:29.390Z,1296.00
2019-02-20T14:15:29.413Z,1292.00
2019-02-20T14:16:29.359Z,1280.00
2019-02-20T14:17:30.756Z,1272.00
2019-02-20T14:18:29.365Z,1272.00
2019-02-20T14:19:29.331Z,1268.00
2019-02-20T14:20:31.434Z,1260.00
2019-02-20T14:21:29.315Z,1248.00
2019-02-20T14:22:29.341Z,1248.00
2019-02-20T14:23:29.780Z,1228.00
2019-02-20T14:24:29.298Z,1236.00
2019-02-20T14:25:29.280Z,1236.00
2019-02-20T14:26:29.274Z,1244.00
2019-02-20T14:27:29.239Z,1224.00
2019-02-20T14:28:29.225Z,1212.00
2019-02-20T14:29:29.215Z,1208.00
2019-02-20T14:30:29.205Z,1200.00
2019-02-20T14:31:29.207Z,1192.00
2019-02-20T14:32:29.220Z,1188.00
2019-02-20T14:33:29.170Z,1200.00
2019-02-20T14:34:29.163Z,1208.00
2019-02-20T14:35:29.267Z,1204.00
2019-02-20T14:36:29.178Z,1192.00
2019-02-20T14:37:29.127Z,1184.00
2019-02-20T14:38:29.123Z,1160.00
2019-02-20T14:39:29.129Z,1120.00
2019-02-20T14:40:29.097Z,1084.00
2019-02-20T14:41:29.086Z,1068.00
2019-02-20T14:42:29.083Z,1056.00
2019-02-20T14:43:29.057Z,1052.00
2019-02-20T14:44:29.056Z,1056.00
2019-02-20T14:45:29.047Z,1064.00
2019-02-20T14:46:29.054Z,1080.00
2019-02-20T14:47:29.019Z,1100.00
2019-02-20T14:48:29.018Z,1116.00
2019-02-20T14:49:29.009Z,1136.00
2019-02-20T14:50:28.988Z,1140.00
2019-02-20T14:51:28.987Z,1148.00
2019-02-20T14:52:28.972Z,1136.00
2019-02-20T14:53:28.993Z,1120.00
2019-02-20T14:54:28.949Z,1112.00
2019-02-20T14:55:28.946Z,1108.00
2019-02-20T14:56:28.930Z,1104.00
2019-02-20T14:57:51.163Z,1104.00
2019-02-20T14:58:50.468Z,1104.00
2019-02-20T14:59:50.455Z,1116.00
2019-02-20T15:00:50.444Z,1132.00
2019-02-20T15:01:51.431Z,1144.00
2019-02-20T15:02:50.423Z,1152.00
2019-02-20T15:03:50.429Z,1160.00
2019-02-20T15:04:50.400Z,1160.00
2019-02-20T15:05:50.397Z,1164.00
2019-02-20T15:06:50.399Z,1164.00
2019-02-20T15:07:50.371Z,1168.00
2019-02-20T15:08:50.368Z,1168.00
2019-02-20T15:09:50.367Z,1172.00
2019-02-20T15:10:50.335Z,1160.00
2019-02-20T15:11:50.333Z,1160.00
2019-02-20T15:12:50.327Z,1144.00
2019-02-20T15:13:50.320Z,1128.00
2019-02-20T15:14:50.400Z,1124.00
2019-02-20T15:15:50.280Z,1100.00
2019-02-20T15:16:50.296Z,1080.00
2019-02-20T15:17:50.358Z,1064.00
2019-02-20T15:18:50.262Z,1044.00
2019-02-20T15:19:50.254Z,1024.00
2019-02-20T15:20:50.257Z,1016.00
2019-02-20T15:21:50.285Z,1008.00
2019-02-20T15:22:50.668Z,996.00
2019-02-20T15:23:50.209Z,984.00
2019-02-20T15:24:50.202Z,972.00
2019-02-20T15:25:53.602Z,956.00
2019-02-20T15:26:50.171Z,944.00
2019-02-20T15:27:50.172Z,936.00
2019-02-20T15:28:50.171Z,920.00
2019-02-20T15:29:50.145Z,904.00
2019-02-20T15:30:50.186Z,884.00
2019-02-20T15:31:50.109Z,868.00
2019-02-20T15:32:50.950Z,860.00
2019-02-20T15:33:50.099Z,848.00
2019-02-20T15:34:50.074Z,840.00
2019-02-20T15:35:50.070Z,844.00
2019-02-20T15:36:50.073Z,840.00
2019-02-20T15:37:50.079Z,832.00
2019-02-20T15:38:50.033Z,824.00
2019-02-20T15:39:50.049Z,816.00
2019-02-20T15:40:50.018Z,812.00
2019-02-20T15:41:50.059Z,808.00
2019-02-20T15:42:49.992Z,804.00
2019-02-20T15:43:51.523Z,804.00
2019-02-20T15:44:49.973Z,792.00
2019-02-20T15:45:49.959Z,784.00
2019-02-20T15:46:49.981Z,780.00
2019-02-20T15:47:49.937Z,768.00
2019-02-20T15:48:49.941Z,764.00
2019-02-20T15:49:50.027Z,756.00
2019-02-20T15:50:49.902Z,748.00
2019-02-20T15:51:49.891Z,744.00
2019-02-20T15:52:50.695Z,732.00
2019-02-20T15:53:49.879Z,724.00
2019-02-20T15:54:49.856Z,712.00
2019-02-20T15:55:49.839Z,700.00
2019-02-20T15:56:49.831Z,688.00
2019-02-20T15:57:49.977Z,680.00
2019-02-20T15:58:49.840Z,672.00
2019-02-20T15:59:49.809Z,668.00
2019-02-20T16:00:49.797Z,660.00
2019-02-20T16:01:49.780Z,652.00
2019-02-20T16:02:49.772Z,648.00
2019-02-20T16:03:49.791Z,636.00
2019-02-20T16:04:49.756Z,624.00
2019-02-20T16:05:49.736Z,616.00
2019-02-20T16:06:49.738Z,612.00
2019-02-20T16:07:49.767Z,612.00
2019-02-20T16:08:49.710Z,612.00
2019-02-20T16:09:49.708Z,604.00
2019-02-20T16:10:49.678Z,596.00
2019-02-20T16:11:49.695Z,588.00
2019-02-20T16:12:49.760Z,584.00
2019-02-20T16:13:50.205Z,576.00
2019-02-20T16:14:49.695Z,568.00
2019-02-20T16:15:49.634Z,564.00
2019-02-20T16:16:49.627Z,556.00
2019-02-20T16:17:49.624Z,544.00
2019-02-20T16:18:49.643Z,540.00
2019-02-20T16:19:49.604Z,532.00
2019-02-20T16:20:49.605Z,524.00
2019-02-20T16:21:49.567Z,520.00
2019-02-20T16:22:49.559Z,512.00
2019-02-20T16:23:49.562Z,504.00
2019-02-20T16:24:49.525Z,496.00
2019-02-20T16:25:49.521Z,488.00
2019-02-20T16:26:49.511Z,480.00
2019-02-20T16:27:49.524Z,472.00
2019-02-20T16:28:49.484Z,460.00
2019-02-20T16:29:49.470Z,452.00
2019-02-20T16:30:49.466Z,440.00
2019-02-20T16:31:49.478Z,436.00
2019-02-20T16:32:51.203Z,432.00
2019-02-20T16:33:49.530Z,424.00
2019-02-20T16:34:49.418Z,416.00
2019-02-20T16:35:49.413Z,408.00
2019-02-20T16:36:49.410Z,396.00
2019-02-20T16:37:49.386Z,392.00
2019-02-20T16:38:49.384Z,388.00
2019-02-20T16:39:49.373Z,376.00
2019-02-20T16:40:49.368Z,376.00
2019-02-20T16:41:49.348Z,368.00
2019-02-20T16:42:49.335Z,360.00
2019-02-20T16:43:49.335Z,356.00
2019-02-20T16:44:49.311Z,348.00
2019-02-20T16:45:49.314Z,344.00
2019-02-20T16:46:49.294Z,336.00
2019-02-20T16:47:49.282Z,336.00
2019-02-20T16:48:49.276Z,328.00
2019-02-20T16:49:49.354Z,324.00
2019-02-20T16:50:49.254Z,316.00
2019-02-20T16:51:49.241Z,312.00
2019-02-20T16:52:49.226Z,308.00
2019-02-20T16:53:49.210Z,304.00
2019-02-20T16:54:49.197Z,304.00
2019-02-20T16:55:49.195Z,296.00
2019-02-20T16:56:49.184Z,292.00
2019-02-20T16:57:56.387Z,288.00
2019-02-20T16:59:10.634Z,288.00
2019-02-20T17:00:12.186Z,284.00
2019-02-20T17:01:10.635Z,284.00
2019-02-20T17:02:10.597Z,280.00
2019-02-20T17:03:10.600Z,280.00
2019-02-20T17:04:10.584Z,276.00
2019-02-20T17:05:14.183Z,276.00
2019-02-20T17:06:12.648Z,276.00
2019-02-20T17:07:10.546Z,272.00
2019-02-20T17:08:10.526Z,268.00
2019-02-20T17:09:10.519Z,268.00
2019-02-20T17:10:10.568Z,268.00
2019-02-20T17:11:10.506Z,268.00
2019-02-20T17:12:10.493Z,264.00
2019-02-20T17:13:10.470Z,264.00
2019-02-20T17:14:10.509Z,264.00
2019-02-20T17:15:10.476Z,264.00
2019-02-20T17:16:10.505Z,264.00
2019-02-20T17:17:10.452Z,264.00
2019-02-20T17:18:10.425Z,260.00
2019-02-20T17:19:11.628Z,260.00
2019-02-20T17:20:10.399Z,264.00
2019-02-20T17:21:10.399Z,260.00
2019-02-20T17:22:10.373Z,260.00
2019-02-20T17:23:10.368Z,260.00
2019-02-20T17:24:10.361Z,260.00
2019-02-20T17:25:10.340Z,260.00
2019-02-20T17:26:10.343Z,260.00
2019-02-20T17:27:10.321Z,260.00
2019-02-20T17:28:10.305Z,260.00
2019-02-20T17:29:10.300Z,260.00
2019-02-20T17:30:10.301Z,260.00
2019-02-20T17:31:10.277Z,260.00
2019-02-20T17:32:10.292Z,264.00
2019-02-20T17:33:10.249Z,260.00
2019-02-20T17:34:10.239Z,260.00
2019-02-20T17:35:10.266Z,260.00
2019-02-20T17:36:10.216Z,260.00
2019-02-20T17:37:10.205Z,264.00
2019-02-20T17:38:10.229Z,264.00
2019-02-20T17:39:10.650Z,260.00
2019-02-20T17:40:10.177Z,264.00
2019-02-20T17:41:10.164Z,264.00
2019-02-20T17:42:10.146Z,260.00
2019-02-20T17:43:10.169Z,260.00
2019-02-20T17:44:11.635Z,264.00
2019-02-20T17:45:10.126Z,264.00
2019-02-20T17:46:10.109Z,264.00
2019-02-20T17:47:10.096Z,264.00
2019-02-20T17:48:10.085Z,264.00
2019-02-20T17:49:10.085Z,264.00
2019-02-20T17:50:10.074Z,264.00
2019-02-20T17:51:10.086Z,260.00
2019-02-20T17:52:10.037Z,260.00
2019-02-20T17:53:11.069Z,260.00
2019-02-20T17:54:10.026Z,264.00
2019-02-20T17:55:10.023Z,264.00
2019-02-20T17:56:09.989Z,260.00
2019-02-20T17:57:11.282Z,264.00
2019-02-20T17:58:15.272Z,264.00
2019-02-20T17:59:09.962Z,260.00
2019-02-20T18:00:09.963Z,260.00
2019-02-20T18:01:09.943Z,264.00
2019-02-20T18:02:09.924Z,264.00
2019-02-20T18:03:09.917Z,264.00
2019-02-20T18:04:09.949Z,260.00
2019-02-20T18:05:09.941Z,264.00
2019-02-20T18:06:09.889Z,264.00
2019-02-20T18:07:09.878Z,264.00
2019-02-20T18:08:09.881Z,264.00
2019-02-20T18:09:09.853Z,260.00
2019-02-20T18:10:09.837Z,264.00
2019-02-20T18:11:09.834Z,264.00
2019-02-20T18:12:09.904Z,260.00
2019-02-20T18:13:09.817Z,264.00
2019-02-20T18:14:10.015Z,264.00
2019-02-20T18:15:09.796Z,264.00
2019-02-20T18:16:09.775Z,260.00
2019-02-20T18:17:09.767Z,264.00
2019-02-20T18:18:09.766Z,264.00
2019-02-20T18:19:09.741Z,264.00
2019-02-20T18:20:09.769Z,264.00
2019-02-20T18:21:09.721Z,264.00
2019-02-20T18:22:09.767Z,264.00
2019-02-20T18:23:09.693Z,264.00
2019-02-20T18:24:09.688Z,264.00
2019-02-20T18:25:09.987Z,264.00
2019-02-20T18:26:09.756Z,264.00
2019-02-20T18:27:09.649Z,264.00
2019-02-20T18:28:09.637Z,264.00
2019-02-20T18:29:09.628Z,264.00
2019-02-20T18:30:09.613Z,260.00
2019-02-20T18:31:09.602Z,264.00
2019-02-20T18:32:09.593Z,264.00
2019-02-20T18:33:09.587Z,264.00
2019-02-20T18:34:09.616Z,260.00
2019-02-20T18:35:09.565Z,264.00
2019-02-20T18:37:09.577Z,264.00
2019-02-20T18:38:09.532Z,264.00
2019-02-20T18:39:09.543Z,264.00
2019-02-20T18:40:09.498Z,260.00
2019-02-20T18:41:09.491Z,260.00
2019-02-20T18:42:09.577Z,264.00
2019-02-20T18:43:09.474Z,260.00
2019-02-20T18:44:09.475Z,264.00
2019-02-20T18:45:09.454Z,260.00
2019-02-20T18:46:09.447Z,260.00
2019-02-20T18:48:09.432Z,264.00
2019-02-20T18:49:09.559Z,264.00
2019-02-20T18:50:09.388Z,264.00
2019-02-20T18:51:09.387Z,264.00
2019-02-20T18:52:09.377Z,264.00
2019-02-20T18:53:09.357Z,264.00
2019-02-20T18:54:09.439Z,260.00
2019-02-20T18:55:09.358Z,264.00
2019-02-20T18:56:09.325Z,260.00
2019-02-20T18:57:09.341Z,260.00
2019-02-20T18:58:09.302Z,264.00
2019-02-20T18:59:09.318Z,260.00
2019-02-20T19:00:09.288Z,260.00
2019-02-20T19:01:09.263Z,264.00
2019-02-20T19:02:09.359Z,260.00